Terminal Aerodrome Forecast
Issued by NWS

Home | Current Version | Previous Version | Text Only | Print | Product List | Glossary On
Versions: 1 2 3 4 5 6 7 8 9 10 11 12 13 14
000
FTUS44 KCRP 181730
TAFLRD
TAF
KLRD 181730Z 1818/1918 15013G19KT P6SM SKC
     FM182200 13017G25KT P6SM FEW080
     FM190600 14011KT P6SM SKC
     FM191400 16012KT P6SM SCT025=

USA.gov is the U.S. government's official web portal to all federal, state and local government web resources and services.